createdAt,value
2018-11-10T00:02:29.989Z,13.20
2018-11-10T00:07:51.915Z,13.20
2018-11-10T00:13:13.915Z,13.20
2018-11-10T00:18:35.636Z,13.10
2018-11-10T00:23:57.652Z,13.00
2018-11-10T00:29:19.449Z,13.00
2018-11-10T00:34:41.657Z,12.90
2018-11-10T00:40:03.441Z,13.00
2018-11-10T00:45:25.762Z,13.00
2018-11-10T00:50:47.669Z,12.90
2018-11-10T00:56:09.926Z,13.00
2018-11-10T01:01:31.787Z,13.00
2018-11-10T01:06:54.863Z,12.90
2018-11-10T01:12:16.986Z,12.90
2018-11-10T01:17:38.887Z,12.70
2018-11-10T01:23:01.042Z,12.60
2018-11-10T01:28:23.025Z,12.50
2018-11-10T01:33:44.813Z,12.50
2018-11-10T01:39:08.487Z,12.40
2018-11-10T01:44:30.357Z,12.40
2018-11-10T01:49:52.458Z,12.40
2018-11-10T01:55:14.517Z,12.40
2018-11-10T02:00:36.790Z,12.40
2018-11-10T02:05:58.636Z,12.40
2018-11-10T02:11:20.761Z,12.50
2018-11-10T02:16:42.746Z,12.50
2018-11-10T02:22:04.926Z,12.50
2018-11-10T02:27:27.209Z,12.30
2018-11-10T02:32:49.240Z,12.30
2018-11-10T02:38:11.407Z,12.20
2018-11-10T02:43:33.551Z,12.20
2018-11-10T02:48:55.328Z,12.20
2018-11-10T02:54:17.321Z,12.30
2018-11-10T02:59:39.098Z,12.40
2018-11-10T03:05:00.866Z,12.40
2018-11-10T03:10:23.057Z,12.40
2018-11-10T03:15:44.838Z,12.40
2018-11-10T03:21:07.070Z,12.40
2018-11-10T03:26:28.933Z,12.40
2018-11-10T03:31:51.141Z,12.40
2018-11-10T03:37:13.216Z,12.40
2018-11-10T03:42:35.237Z,12.40
2018-11-10T03:47:57.304Z,12.40
2018-11-10T03:53:19.424Z,12.40
2018-11-10T03:58:41.603Z,12.40
2018-11-10T04:04:03.779Z,12.40
2018-11-10T04:09:25.558Z,12.40
2018-11-10T04:14:47.726Z,12.40
2018-11-10T04:20:10.585Z,12.30
2018-11-10T04:25:33.068Z,12.30
2018-11-10T04:30:55.111Z,12.30
2018-11-10T04:36:17.088Z,12.30
2018-11-10T04:41:39.127Z,12.40
2018-11-10T04:47:00.974Z,12.30
2018-11-10T04:52:22.968Z,12.30
2018-11-10T04:57:45.044Z,12.30
2018-11-10T05:03:07.327Z,12.30
2018-11-10T05:08:29.055Z,12.20
2018-11-10T05:13:50.689Z,12.20
2018-11-10T05:19:12.804Z,12.10
2018-11-10T05:24:34.874Z,12.10
2018-11-10T05:52:50.014Z,12.00
2018-11-10T05:58:12.113Z,12.30
2018-11-10T06:03:34.228Z,12.30
2018-11-10T06:08:55.995Z,12.20
2018-11-10T06:14:18.100Z,12.20
2018-11-10T06:19:39.984Z,12.30
2018-11-10T06:25:02.092Z,12.30
2018-11-10T06:30:24.083Z,12.30
2018-11-10T06:35:46.277Z,12.20
2018-11-10T06:41:08.623Z,12.20
2018-11-10T06:46:30.484Z,12.20
2018-11-10T06:51:52.601Z,12.20
2018-11-10T06:57:16.226Z,12.20
2018-11-10T07:02:38.056Z,12.30
2018-11-10T07:07:59.905Z,12.30
2018-11-10T07:13:21.603Z,12.30
2018-11-10T07:18:43.716Z,12.30
2018-11-10T07:24:05.477Z,12.20
2018-11-10T07:29:27.969Z,12.20
2018-11-10T07:34:49.688Z,12.30
2018-11-10T07:40:12.842Z,12.30
2018-11-10T07:45:34.749Z,12.30
2018-11-10T07:50:56.500Z,12.40
2018-11-10T07:56:18.632Z,12.50
2018-11-10T08:01:40.351Z,12.60
2018-11-10T08:07:02.529Z,12.70
2018-11-10T08:12:24.311Z,12.80
2018-11-10T08:17:46.451Z,12.90
2018-11-10T08:23:08.335Z,13.10
2018-11-10T08:28:30.020Z,13.20
2018-11-10T08:33:52.135Z,13.20
2018-11-10T08:39:13.965Z,13.30
2018-11-10T08:44:36.071Z,13.40
2018-11-10T08:49:58.129Z,13.40
2018-11-10T08:55:21.399Z,13.50
2018-11-10T09:00:43.430Z,13.50
2018-11-10T09:06:05.089Z,13.60
2018-11-10T09:11:27.484Z,13.70
2018-11-10T09:16:49.627Z,13.80
2018-11-10T09:22:11.512Z,13.80
2018-11-10T09:27:33.070Z,13.80
2018-11-10T09:32:55.192Z,13.90
2018-11-10T09:38:16.964Z,14.00
2018-11-10T09:43:38.599Z,14.00
2018-11-10T09:49:00.737Z,14.20
2018-11-10T09:54:22.384Z,14.20
2018-11-10T09:59:44.589Z,14.30
2018-11-10T10:05:06.837Z,14.40
2018-11-10T10:10:28.688Z,14.50
2018-11-10T10:15:50.475Z,14.50
2018-11-10T10:21:12.597Z,14.50
2018-11-10T10:26:34.811Z,14.60
2018-11-10T10:31:56.839Z,14.60
2018-11-10T10:37:22.814Z,14.70
2018-11-10T10:42:45.431Z,14.50
2018-11-10T10:48:07.236Z,14.30
2018-11-10T10:53:29.079Z,14.00
2018-11-10T10:58:51.132Z,13.90
2018-11-10T11:04:17.815Z,13.90
2018-11-10T11:09:39.871Z,14.40
2018-11-10T11:15:01.553Z,14.60
2018-11-10T11:20:25.023Z,14.60
2018-11-10T11:25:46.934Z,14.70
2018-11-10T11:31:09.101Z,14.60
2018-11-10T11:36:31.015Z,14.40
2018-11-10T11:41:52.687Z,13.80
2018-11-10T11:47:14.956Z,13.30
2018-11-10T11:52:37.044Z,13.20
2018-11-10T11:57:58.941Z,13.30
2018-11-10T12:03:21.350Z,13.30
2018-11-10T12:08:43.214Z,13.20
2018-11-10T12:14:05.307Z,13.20
2018-11-10T12:19:27.598Z,13.30
2018-11-10T12:24:49.660Z,13.30
2018-11-10T12:30:12.089Z,13.10
2018-11-10T12:35:33.887Z,13.10
2018-11-10T12:40:55.699Z,13.00
2018-11-10T12:46:17.958Z,12.90
2018-11-10T12:51:39.871Z,12.90
2018-11-10T12:57:01.959Z,12.40
2018-11-10T13:02:23.676Z,11.90
2018-11-10T13:07:47.026Z,11.70
2018-11-10T13:13:08.976Z,11.60
2018-11-10T13:18:30.638Z,11.60
2018-11-10T13:23:52.290Z,11.40
2018-11-10T13:29:14.271Z,11.40
2018-11-10T13:34:36.398Z,11.60
2018-11-10T13:39:58.293Z,11.80
2018-11-10T13:45:19.937Z,11.90
2018-11-10T13:50:42.177Z,12.00
2018-11-10T13:56:04.012Z,12.10
2018-11-10T14:01:26.681Z,12.20
2018-11-10T14:06:48.809Z,12.30
2018-11-10T14:12:10.665Z,12.50
2018-11-10T14:17:32.832Z,12.60
2018-11-10T14:22:54.719Z,12.70
2018-11-10T14:28:16.812Z,12.70
2018-11-10T14:33:38.640Z,12.70
2018-11-10T14:39:00.904Z,12.70
2018-11-10T14:44:22.768Z,12.60
2018-11-10T14:49:44.984Z,12.60
2018-11-10T14:55:07.111Z,12.80
2018-11-10T15:00:30.120Z,12.70
2018-11-10T15:05:52.183Z,12.60
2018-11-10T15:11:14.298Z,12.70
2018-11-10T15:16:36.201Z,12.60
2018-11-10T15:21:58.223Z,12.70
2018-11-10T15:27:20.061Z,12.70
2018-11-10T15:32:43.136Z,12.70
2018-11-10T15:38:05.671Z,12.60
2018-11-10T15:43:28.211Z,12.60
2018-11-10T15:48:49.805Z,12.60
2018-11-10T15:54:11.822Z,12.60
2018-11-10T15:59:33.469Z,12.60
2018-11-10T16:04:55.612Z,12.60
2018-11-10T16:10:17.328Z,12.60
2018-11-10T16:15:38.900Z,12.50
2018-11-10T16:21:00.996Z,12.50
2018-11-10T16:26:22.677Z,12.60
2018-11-10T16:31:44.897Z,12.60
2018-11-10T16:37:07.291Z,12.60
2018-11-10T16:42:29.516Z,12.60
2018-11-10T16:47:51.173Z,12.60
2018-11-10T16:53:13.075Z,12.50
2018-11-10T16:58:34.877Z,12.60
2018-11-10T17:03:57.369Z,12.60
2018-11-10T17:09:19.058Z,12.60
2018-11-10T17:14:40.679Z,12.60
2018-11-10T17:20:02.740Z,12.60
2018-11-10T17:25:24.448Z,12.60
2018-11-10T17:30:46.443Z,12.60
2018-11-10T17:36:08.631Z,12.60
2018-11-10T17:41:30.435Z,12.70
2018-11-10T17:46:52.450Z,12.70
2018-11-10T17:52:14.435Z,12.70
2018-11-10T17:57:36.770Z,12.70
2018-11-10T18:02:58.587Z,12.70
2018-11-10T18:08:20.612Z,12.80
2018-11-10T18:13:42.397Z,12.80
2018-11-10T18:19:04.829Z,12.90
2018-11-10T18:24:27.161Z,12.90
2018-11-10T18:29:48.901Z,12.80
2018-11-10T18:35:11.869Z,12.80
2018-11-10T18:40:34.111Z,12.70
2018-11-10T18:45:56.026Z,12.70
2018-11-10T18:51:18.103Z,12.60
2018-11-10T18:56:40.192Z,12.60
2018-11-10T19:02:02.375Z,12.60
2018-11-10T19:07:24.222Z,12.70
2018-11-10T19:12:46.389Z,12.70
2018-11-10T19:18:08.302Z,12.70
2018-11-10T19:23:30.305Z,12.70
2018-11-10T19:28:52.133Z,12.80
2018-11-10T19:34:14.252Z,12.80
2018-11-10T19:39:35.973Z,12.80
2018-11-10T19:44:58.081Z,12.90
2018-11-10T19:50:20.049Z,12.80
2018-11-10T19:55:42.172Z,12.40
2018-11-10T20:01:03.885Z,12.30
2018-11-10T20:06:26.082Z,12.30
2018-11-10T20:11:47.751Z,12.40
2018-11-10T20:17:10.156Z,12.40
2018-11-10T20:22:32.000Z,12.40
2018-11-10T20:27:53.839Z,12.40
2018-11-10T20:33:16.174Z,12.40
2018-11-10T20:38:37.868Z,12.40
2018-11-10T20:44:00.001Z,12.50
2018-11-10T20:49:22.182Z,12.50
2018-11-10T20:54:44.188Z,12.30
2018-11-10T21:00:06.918Z,12.20
2018-11-10T21:05:28.729Z,12.30
2018-11-10T21:10:51.003Z,12.20
2018-11-10T21:16:12.819Z,12.10
2018-11-10T21:21:34.676Z,12.10
2018-11-10T21:26:56.573Z,12.10
2018-11-10T21:32:18.287Z,12.10
2018-11-10T21:37:40.395Z,12.10
2018-11-10T21:43:02.448Z,12.20
2018-11-10T21:48:24.456Z,12.20
2018-11-10T21:53:46.233Z,12.30
2018-11-10T21:59:07.977Z,12.40
2018-11-10T22:04:29.983Z,12.40
2018-11-10T22:09:51.820Z,12.50
2018-11-10T22:15:15.463Z,12.50
2018-11-10T22:20:40.122Z,12.50
2018-11-10T22:26:01.805Z,12.50
2018-11-10T22:31:23.807Z,12.50
2018-11-10T22:36:49.645Z,12.50
2018-11-10T22:42:11.521Z,12.60
2018-11-10T22:47:33.237Z,12.60
2018-11-10T22:52:55.273Z,12.50
2018-11-10T22:58:19.953Z,12.50
2018-11-10T23:03:45.096Z,12.50
2018-11-10T23:09:12.280Z,12.50
2018-11-10T23:14:36.445Z,12.60
2018-11-10T23:20:02.290Z,12.40
2018-11-10T23:25:27.366Z,12.20
2018-11-10T23:30:52.153Z,11.70
2018-11-10T23:36:15.292Z,11.10
2018-11-10T23:41:39.958Z,11.00
2018-11-10T23:47:05.767Z,11.10
2018-11-10T23:52:29.624Z,11.30
2018-11-10T23:57:53.460Z,11.60
